createdAt,value
2019-03-13T00:01:18.769Z,86.50
2019-03-13T00:03:46.107Z,85.90
2019-03-13T00:06:13.747Z,85.80
2019-03-13T00:08:41.103Z,86.10
2019-03-13T00:11:08.351Z,85.80
2019-03-13T00:13:35.817Z,85.90
2019-03-13T00:16:03.048Z,85.80
2019-03-13T00:18:30.382Z,85.70
2019-03-13T00:20:57.674Z,85.80
2019-03-13T00:23:25.032Z,85.70
2019-03-13T00:25:52.325Z,85.70
2019-03-13T00:28:19.668Z,85.80
2019-03-13T00:30:47.025Z,85.90
2019-03-13T00:33:14.430Z,85.90
2019-03-13T00:35:41.859Z,85.90
2019-03-13T00:38:09.072Z,85.80
2019-03-13T00:40:36.412Z,85.90
2019-03-13T00:43:03.727Z,85.90
2019-03-13T00:45:31.045Z,85.90
2019-03-13T00:47:58.416Z,85.90
2019-03-13T00:50:27.670Z,85.80
2019-03-13T00:52:54.985Z,85.80
2019-03-13T00:55:22.323Z,85.70
2019-03-13T00:57:49.663Z,85.70
2019-03-13T01:00:30.859Z,85.80
2019-03-13T01:02:58.225Z,85.90
2019-03-13T01:05:47.803Z,85.80
2019-03-13T01:08:15.080Z,85.70
2019-03-13T01:10:42.386Z,85.80
2019-03-13T01:13:09.737Z,85.60
2019-03-13T01:15:37.116Z,85.50
2019-03-13T01:18:04.354Z,85.40
2019-03-13T01:20:31.707Z,85.30
2019-03-13T01:22:59.012Z,85.10
2019-03-13T01:25:26.361Z,85.00
2019-03-13T01:27:53.687Z,84.90
2019-03-13T01:30:21.005Z,84.80
2019-03-13T01:32:53.605Z,84.80
2019-03-13T01:35:42.196Z,84.90
2019-03-13T01:38:09.505Z,84.80
2019-03-13T01:40:36.844Z,84.70
2019-03-13T01:43:04.204Z,84.50
2019-03-13T01:45:31.524Z,84.20
2019-03-13T01:47:58.764Z,84.00
2019-03-13T01:50:25.992Z,83.90
2019-03-13T01:52:53.280Z,83.70
2019-03-13T01:55:20.522Z,83.70
2019-03-13T01:57:47.760Z,83.60
2019-03-13T02:00:15.704Z,83.60
2019-03-13T02:02:42.908Z,83.60
2019-03-13T02:05:10.222Z,83.50
2019-03-13T02:07:38.103Z,83.40
2019-03-13T02:10:06.584Z,83.30
2019-03-13T02:12:33.836Z,83.30
2019-03-13T02:15:01.162Z,83.20
2019-03-13T02:17:29.682Z,83.00
2019-03-13T02:19:56.892Z,82.90
2019-03-13T02:22:24.200Z,82.90
2019-03-13T02:24:54.062Z,82.90
2019-03-13T02:27:20.736Z,82.90
2019-03-13T02:29:48.032Z,83.00
2019-03-13T02:32:15.365Z,83.10
2019-03-13T02:34:42.681Z,83.20
2019-03-13T02:37:10.002Z,83.00
2019-03-13T02:39:37.322Z,82.80
2019-03-13T02:42:04.575Z,82.80
2019-03-13T02:44:31.802Z,83.30
2019-03-13T02:46:59.147Z,82.50
2019-03-13T02:49:26.383Z,82.30
2019-03-13T02:51:53.626Z,82.40
2019-03-13T02:54:20.983Z,82.10
2019-03-13T02:56:48.310Z,82.00
2019-03-13T02:59:15.647Z,81.70
2019-03-13T03:02:17.479Z,81.00
2019-03-13T03:04:45.936Z,80.90
2019-03-13T03:07:13.312Z,80.80
2019-03-13T03:09:40.679Z,80.70
2019-03-13T03:12:08.024Z,80.60
2019-03-13T03:14:35.363Z,80.60
2019-03-13T03:17:02.601Z,80.40
2019-03-13T03:19:29.843Z,80.30
2019-03-13T03:21:57.165Z,80.10
2019-03-13T03:24:24.390Z,80.00
2019-03-13T03:26:51.723Z,79.70
2019-03-13T03:29:19.045Z,79.50
2019-03-13T03:31:46.368Z,79.10
2019-03-13T03:34:13.609Z,78.90
2019-03-13T03:36:40.917Z,78.80
2019-03-13T03:39:08.262Z,78.60
2019-03-13T03:41:35.797Z,78.40
2019-03-13T03:44:03.109Z,78.40
2019-03-13T03:46:30.443Z,78.50
2019-03-13T03:48:57.808Z,78.40
2019-03-13T03:51:25.151Z,78.00
2019-03-13T03:53:52.394Z,77.80
2019-03-13T03:56:19.621Z,77.70
2019-03-13T03:58:46.849Z,77.70
2019-03-13T04:01:14.170Z,77.30
2019-03-13T04:03:41.509Z,76.90
2019-03-13T04:06:08.938Z,76.90
2019-03-13T04:08:37.850Z,76.70
2019-03-13T04:11:05.384Z,76.50
2019-03-13T04:13:32.712Z,76.20
2019-03-13T04:15:59.960Z,76.10
2019-03-13T04:18:27.305Z,75.90
2019-03-13T04:20:54.649Z,75.90
2019-03-13T04:23:21.960Z,75.80
2019-03-13T04:25:49.407Z,75.80
2019-03-13T04:28:16.637Z,75.80
2019-03-13T04:30:43.960Z,75.70
2019-03-13T04:33:11.299Z,75.50
2019-03-13T04:35:38.609Z,75.30
2019-03-13T04:38:05.960Z,75.30
2019-03-13T04:40:33.409Z,75.30
2019-03-13T04:43:00.763Z,75.30
2019-03-13T04:45:28.085Z,75.30
2019-03-13T04:47:55.434Z,75.50
2019-03-13T04:50:22.766Z,75.40
2019-03-13T04:52:50.101Z,75.50
2019-03-13T04:55:17.411Z,75.50
2019-03-13T04:57:44.741Z,75.50
2019-03-13T05:00:12.798Z,75.40
2019-03-13T05:02:40.185Z,75.30
2019-03-13T05:05:09.574Z,75.10
2019-03-13T05:07:36.798Z,75.30
2019-03-13T05:10:05.700Z,75.50
2019-03-13T05:12:33.023Z,75.30
2019-03-13T05:15:00.468Z,75.20
2019-03-13T05:17:27.784Z,75.20
2019-03-13T05:19:55.108Z,75.10
2019-03-13T05:22:22.483Z,74.90
2019-03-13T05:24:49.819Z,74.80
2019-03-13T05:27:17.139Z,74.80
2019-03-13T05:29:44.360Z,74.60
2019-03-13T05:32:11.702Z,74.60
2019-03-13T05:34:38.932Z,74.70
2019-03-13T05:37:06.170Z,75.50
2019-03-13T05:39:33.404Z,74.70
2019-03-13T05:42:00.719Z,74.70
2019-03-13T05:44:27.979Z,74.70
2019-03-13T05:46:55.308Z,74.60
2019-03-13T05:49:22.659Z,74.40
2019-03-13T05:51:49.986Z,74.40
2019-03-13T05:54:17.370Z,74.30
2019-03-13T05:56:44.711Z,74.10
2019-03-13T05:59:12.034Z,74.20
2019-03-13T06:01:39.267Z,74.10
2019-03-13T06:04:06.470Z,74.00
2019-03-13T06:06:33.808Z,73.90
2019-03-13T06:09:01.162Z,73.90
2019-03-13T06:11:28.502Z,73.80
2019-03-13T06:13:55.858Z,73.60
2019-03-13T06:16:23.194Z,73.50
2019-03-13T06:18:52.715Z,73.50
2019-03-13T06:21:19.800Z,73.60
2019-03-13T06:23:48.134Z,73.40
2019-03-13T06:26:15.521Z,73.20
2019-03-13T06:28:42.751Z,72.90
2019-03-13T06:31:10.089Z,72.80
2019-03-13T06:33:37.419Z,72.80
2019-03-13T06:36:04.775Z,72.80
2019-03-13T06:38:32.124Z,72.80
2019-03-13T06:40:59.450Z,72.70
2019-03-13T06:43:26.792Z,72.50
2019-03-13T06:45:54.149Z,72.30
2019-03-13T06:48:21.394Z,72.30
2019-03-13T06:50:48.738Z,72.50
2019-03-13T06:53:16.078Z,72.50
2019-03-13T06:55:43.282Z,72.60
2019-03-13T06:58:10.670Z,72.90
2019-03-13T07:01:12.187Z,73.00
2019-03-13T07:03:54.815Z,73.10
2019-03-13T07:06:47.497Z,73.10
2019-03-13T07:09:28.640Z,72.90
2019-03-13T07:12:13.934Z,72.80
2019-03-13T07:14:58.977Z,73.00
2019-03-13T07:17:39.845Z,73.40
2019-03-13T07:20:17.815Z,73.40
2019-03-13T07:22:55.085Z,73.40
2019-03-13T07:25:39.834Z,73.40
2019-03-13T07:28:33.210Z,73.40
2019-03-13T07:31:18.606Z,73.10
2019-03-13T07:34:03.928Z,72.90
2019-03-13T07:36:59.665Z,73.20
2019-03-13T07:39:46.497Z,73.50
2019-03-13T07:42:23.905Z,73.50
2019-03-13T07:45:09.161Z,73.50
2019-03-13T07:47:55.999Z,73.70
2019-03-13T07:50:54.825Z,74.10
2019-03-13T07:53:28.635Z,74.60
2019-03-13T07:56:11.711Z,74.60
2019-03-13T07:58:53.903Z,74.50
2019-03-13T08:01:25.735Z,74.50
2019-03-13T08:03:58.751Z,74.60
2019-03-13T08:06:48.114Z,75.30
2019-03-13T08:09:33.399Z,75.50
2019-03-13T08:12:38.184Z,75.70
2019-03-13T08:15:24.101Z,75.80
2019-03-13T08:18:07.077Z,75.60
2019-03-13T08:20:53.896Z,75.70
2019-03-13T08:23:40.742Z,76.10
2019-03-13T08:26:30.146Z,76.30
2019-03-13T08:29:16.987Z,77.20
2019-03-13T08:31:53.862Z,77.70
2019-03-13T08:34:32.009Z,77.90
2019-03-13T08:37:17.547Z,77.80
2019-03-13T08:40:02.015Z,77.80
2019-03-13T08:42:48.929Z,77.90
2019-03-13T08:45:34.456Z,77.60
2019-03-13T08:48:10.561Z,77.80
2019-03-13T08:50:46.167Z,77.50
2019-03-13T08:53:44.849Z,77.40
2019-03-13T08:56:31.669Z,77.60
2019-03-13T08:59:11.051Z,77.70
2019-03-13T09:02:06.393Z,78.00
2019-03-13T09:04:42.453Z,78.20
2019-03-13T09:07:32.053Z,78.30
2019-03-13T09:10:10.814Z,78.60
2019-03-13T09:12:51.202Z,78.70
2019-03-13T09:15:28.733Z,79.00
2019-03-13T09:18:14.393Z,79.30
2019-03-13T09:21:01.241Z,79.70
2019-03-13T09:23:52.384Z,80.00
2019-03-13T09:26:50.795Z,80.50
2019-03-13T09:29:43.481Z,80.60
2019-03-13T09:32:29.196Z,80.60
2019-03-13T09:35:10.991Z,80.50
2019-03-13T09:38:03.738Z,80.60
2019-03-13T09:40:41.081Z,80.90
2019-03-13T09:43:15.973Z,80.50
2019-03-13T09:46:07.101Z,80.30
2019-03-13T09:48:41.302Z,80.00
2019-03-13T09:51:34.141Z,79.80
2019-03-13T09:54:20.977Z,79.20
2019-03-13T09:57:07.909Z,78.80
2019-03-13T09:59:59.363Z,78.20
2019-03-13T10:02:48.939Z,77.70
2019-03-13T10:05:39.654Z,77.80
2019-03-13T10:08:28.750Z,77.90
2019-03-13T10:11:15.592Z,77.90
2019-03-13T10:13:49.610Z,78.10
2019-03-13T10:16:36.680Z,77.90
2019-03-13T10:19:21.985Z,78.10
2019-03-13T10:22:23.772Z,78.10
2019-03-13T10:24:58.422Z,78.10
2019-03-13T10:27:45.249Z,77.90
2019-03-13T10:30:41.256Z,77.50
2019-03-13T10:33:19.856Z,77.50
2019-03-13T10:36:06.758Z,77.40
2019-03-13T10:39:02.465Z,77.20
2019-03-13T10:41:52.213Z,77.80
2019-03-13T10:44:39.066Z,79.50
2019-03-13T10:47:15.416Z,81.10
2019-03-13T10:50:02.330Z,83.50
2019-03-13T10:52:47.677Z,85.00
2019-03-13T10:55:24.849Z,88.90
2019-03-13T10:58:13.448Z,90.20
2019-03-13T11:00:46.820Z,90.50
2019-03-13T11:03:33.379Z,90.70
2019-03-13T11:06:23.092Z,90.70
2019-03-13T11:09:08.514Z,91.00
2019-03-13T11:11:43.839Z,91.30
2019-03-13T11:14:30.702Z,90.90
2019-03-13T11:17:09.406Z,90.70
2019-03-13T11:19:48.894Z,90.40
2019-03-13T11:22:34.128Z,90.20
2019-03-13T11:25:21.034Z,89.40
2019-03-13T11:28:04.364Z,89.10
2019-03-13T11:30:38.938Z,89.10
2019-03-13T11:33:31.958Z,88.90
2019-03-13T11:36:18.846Z,88.70
2019-03-13T11:39:04.121Z,88.00
2019-03-13T11:42:01.746Z,88.00
2019-03-13T11:44:51.608Z,87.60
2019-03-13T11:47:42.646Z,87.20
2019-03-13T11:50:34.006Z,86.60
2019-03-13T11:53:07.482Z,85.00
2019-03-13T11:55:52.440Z,85.00
2019-03-13T11:58:37.672Z,84.70
2019-03-13T12:01:20.768Z,83.50
2019-03-13T12:04:05.311Z,83.90
2019-03-13T12:06:49.642Z,84.40
2019-03-13T12:09:29.386Z,84.50
2019-03-13T12:12:14.674Z,84.30
2019-03-13T12:14:48.801Z,84.10
2019-03-13T12:17:33.787Z,84.00
2019-03-13T12:20:18.856Z,84.40
2019-03-13T12:23:04.132Z,84.50
2019-03-13T12:25:53.497Z,84.40
2019-03-13T12:28:33.861Z,84.40
2019-03-13T12:31:13.999Z,84.10
2019-03-13T12:34:03.646Z,83.90
2019-03-13T12:36:47.714Z,83.80
2019-03-13T12:39:31.295Z,83.80
2019-03-13T12:42:23.917Z,83.70
2019-03-13T12:45:14.969Z,83.20
2019-03-13T12:48:16.777Z,83.40
2019-03-13T12:51:05.103Z,83.40
2019-03-13T12:53:44.705Z,83.20
2019-03-13T12:56:43.125Z,82.90
2019-03-13T12:59:32.885Z,83.30
2019-03-13T13:02:18.113Z,83.20
2019-03-13T13:05:07.522Z,83.00
2019-03-13T13:08:12.321Z,82.70
2019-03-13T13:10:57.580Z,82.20
2019-03-13T13:13:46.940Z,82.40
2019-03-13T13:16:21.900Z,82.40
2019-03-13T13:18:51.538Z,83.10
2019-03-13T13:21:19.194Z,84.20
2019-03-13T13:23:46.623Z,84.20
2019-03-13T13:26:13.974Z,84.20
2019-03-13T13:28:41.266Z,84.60
2019-03-13T13:31:08.595Z,85.10
2019-03-13T13:33:35.942Z,86.20
2019-03-13T13:36:04.099Z,87.00
2019-03-13T13:38:31.466Z,87.70
2019-03-13T13:40:58.841Z,88.50
2019-03-13T13:43:26.162Z,88.50
2019-03-13T13:45:56.903Z,88.90
2019-03-13T13:48:24.200Z,88.70
2019-03-13T13:50:51.393Z,88.40
2019-03-13T13:53:18.736Z,88.20
2019-03-13T13:55:45.971Z,88.10
2019-03-13T13:58:13.188Z,87.80
2019-03-13T14:00:40.550Z,87.90
2019-03-13T14:03:07.898Z,88.40
2019-03-13T14:05:35.201Z,88.60
2019-03-13T14:08:02.413Z,88.40
2019-03-13T14:10:29.716Z,88.00
2019-03-13T14:12:56.930Z,87.70
2019-03-13T14:15:24.148Z,87.30
2019-03-13T14:17:51.491Z,87.10
2019-03-13T14:20:18.835Z,87.00
2019-03-13T14:22:46.178Z,86.80
2019-03-13T14:25:13.448Z,86.60
2019-03-13T14:27:40.940Z,86.50
2019-03-13T14:30:08.532Z,86.30
2019-03-13T14:32:35.842Z,86.10
2019-03-13T14:35:03.218Z,85.80
2019-03-13T14:37:30.544Z,85.70
2019-03-13T14:40:00.947Z,86.90
2019-03-13T14:42:28.259Z,86.80
2019-03-13T14:44:55.478Z,87.20
2019-03-13T14:47:22.800Z,87.00
2019-03-13T14:49:50.141Z,86.10
2019-03-13T14:52:17.469Z,85.60
2019-03-13T14:54:44.782Z,85.50
2019-03-13T14:57:12.081Z,85.10
2019-03-13T14:59:39.373Z,84.90
2019-03-13T15:02:06.721Z,84.80
2019-03-13T15:04:34.074Z,84.80
2019-03-13T15:07:02.181Z,84.80
2019-03-13T15:09:29.451Z,85.00
2019-03-13T15:11:56.851Z,85.50
2019-03-13T15:14:24.157Z,85.60
2019-03-13T15:16:53.305Z,85.80
2019-03-13T15:19:20.605Z,86.20
2019-03-13T15:21:47.824Z,86.90
2019-03-13T15:24:15.147Z,87.90
2019-03-13T15:26:42.610Z,89.20
2019-03-13T15:29:09.966Z,90.10
2019-03-13T15:31:37.309Z,90.60
2019-03-13T15:34:04.661Z,91.10
2019-03-13T15:36:31.913Z,91.30
2019-03-13T15:38:59.245Z,91.40
2019-03-13T15:41:26.634Z,91.50
2019-03-13T15:43:54.096Z,91.50
2019-03-13T15:46:21.429Z,91.40
2019-03-13T15:48:48.797Z,91.40
2019-03-13T15:51:16.021Z,91.30
2019-03-13T15:53:43.450Z,91.30
2019-03-13T15:56:10.756Z,91.20
2019-03-13T15:58:37.976Z,91.40
2019-03-13T16:01:05.585Z,91.70
2019-03-13T16:03:32.937Z,91.70
2019-03-13T16:06:00.318Z,91.40
2019-03-13T16:08:27.648Z,91.30
2019-03-13T16:10:54.990Z,91.10
2019-03-13T16:13:22.351Z,91.20
2019-03-13T16:15:49.689Z,91.00
2019-03-13T16:18:17.077Z,90.90
2019-03-13T16:20:44.401Z,90.80
2019-03-13T16:23:11.711Z,90.70
2019-03-13T16:25:38.950Z,90.70
2019-03-13T16:28:06.201Z,91.00
2019-03-13T16:30:36.701Z,91.50
2019-03-13T16:33:03.978Z,92.20
2019-03-13T16:35:31.168Z,93.10
2019-03-13T16:37:58.507Z,94.00
2019-03-13T16:40:25.837Z,93.60
2019-03-13T16:42:53.170Z,94.20
2019-03-13T16:45:20.521Z,94.90
2019-03-13T16:47:47.921Z,95.20
2019-03-13T16:50:15.790Z,95.40
2019-03-13T16:52:43.148Z,95.50
2019-03-13T16:55:12.561Z,95.50
2019-03-13T16:57:39.786Z,95.50
2019-03-13T17:00:14.965Z,95.40
2019-03-13T17:02:42.298Z,95.30
2019-03-13T17:05:10.689Z,95.10
2019-03-13T17:07:37.910Z,95.00
2019-03-13T17:10:05.965Z,94.90
2019-03-13T17:12:33.178Z,94.80
2019-03-13T17:15:00.502Z,94.80
2019-03-13T17:17:27.824Z,94.80
2019-03-13T17:19:55.180Z,94.90
2019-03-13T17:22:22.403Z,95.00
2019-03-13T17:24:49.724Z,95.10
2019-03-13T17:27:17.077Z,95.10
2019-03-13T17:29:44.301Z,95.10
2019-03-13T17:32:11.877Z,95.20
2019-03-13T17:34:39.153Z,95.20
2019-03-13T17:37:06.484Z,95.30
2019-03-13T17:39:34.091Z,95.40
2019-03-13T17:42:01.572Z,95.40
2019-03-13T17:44:29.527Z,95.60
2019-03-13T17:46:56.899Z,95.60
2019-03-13T17:49:24.245Z,95.60
2019-03-13T17:51:51.543Z,95.70
2019-03-13T17:54:18.881Z,95.70
2019-03-13T17:56:46.107Z,95.70
2019-03-13T17:59:13.393Z,95.70
2019-03-13T18:01:40.610Z,95.70
2019-03-13T18:04:07.917Z,95.70
2019-03-13T18:06:35.256Z,95.70
2019-03-13T18:09:04.384Z,95.60
2019-03-13T18:11:32.229Z,95.60
2019-03-13T18:13:59.539Z,95.70
2019-03-13T18:16:26.894Z,95.70
2019-03-13T18:18:54.209Z,95.70
2019-03-13T18:21:21.547Z,95.70
2019-03-13T18:23:49.042Z,95.50
2019-03-13T18:26:16.391Z,95.50
2019-03-13T18:28:43.754Z,95.50
2019-03-13T18:31:11.125Z,95.70
2019-03-13T18:33:38.479Z,95.70
2019-03-13T18:36:05.976Z,95.80
2019-03-13T18:38:33.326Z,95.90
2019-03-13T18:41:00.677Z,96.10
2019-03-13T18:43:28.037Z,96.20
2019-03-13T18:45:55.369Z,96.10
2019-03-13T18:48:22.653Z,96.00
2019-03-13T18:50:49.865Z,96.00
2019-03-13T18:53:17.190Z,96.20
2019-03-13T18:55:44.545Z,95.40
2019-03-13T18:58:14.124Z,95.30
2019-03-13T19:00:41.119Z,95.00
2019-03-13T19:03:08.541Z,94.90
2019-03-13T19:05:35.883Z,94.70
2019-03-13T19:08:03.334Z,94.50
2019-03-13T19:10:30.693Z,94.40
2019-03-13T19:12:57.939Z,94.30
2019-03-13T19:15:25.346Z,94.30
2019-03-13T19:17:52.776Z,94.40
2019-03-13T19:20:20.430Z,94.40
2019-03-13T19:22:47.771Z,94.40
2019-03-13T19:25:15.181Z,94.40
2019-03-13T19:27:42.534Z,94.50
2019-03-13T19:30:13.129Z,94.60
2019-03-13T19:32:40.522Z,94.60
2019-03-13T19:35:08.114Z,94.80
2019-03-13T19:37:35.444Z,94.90
2019-03-13T19:40:02.802Z,95.00
2019-03-13T19:42:30.130Z,94.90
2019-03-13T19:44:57.528Z,94.90
2019-03-13T19:47:24.918Z,95.10
2019-03-13T19:49:52.255Z,95.10
2019-03-13T19:52:19.662Z,94.80
2019-03-13T19:54:46.941Z,94.70
2019-03-13T19:57:14.369Z,94.60
2019-03-13T19:59:41.736Z,94.50
2019-03-13T20:02:09.104Z,94.50
2019-03-13T20:04:46.846Z,94.60
2019-03-13T20:07:05.774Z,94.70
2019-03-13T20:09:33.467Z,95.00
2019-03-13T20:12:00.745Z,95.10
2019-03-13T20:14:28.083Z,95.20
2019-03-13T20:16:55.462Z,95.20
2019-03-13T20:19:22.879Z,95.30
2019-03-13T20:21:50.299Z,95.30
2019-03-13T20:24:17.639Z,95.30
2019-03-13T20:26:44.988Z,95.40
2019-03-13T20:29:12.246Z,95.40
2019-03-13T20:31:39.590Z,95.60
2019-03-13T20:34:06.928Z,95.60
2019-03-13T20:36:34.248Z,95.60
2019-03-13T20:39:01.641Z,95.60
2019-03-13T20:41:28.990Z,95.70
2019-03-13T20:43:56.257Z,95.70
2019-03-13T20:46:23.663Z,95.70
2019-03-13T20:48:50.997Z,95.60
2019-03-13T20:51:18.351Z,95.50
2019-03-13T20:53:45.783Z,95.40
2019-03-13T20:56:13.097Z,95.30
2019-03-13T20:58:40.430Z,95.20
2019-03-13T21:01:07.842Z,95.00
2019-03-13T21:03:35.196Z,94.80
2019-03-13T21:06:02.538Z,94.60
2019-03-13T21:08:29.926Z,94.50
2019-03-13T21:10:57.306Z,94.40
2019-03-13T21:13:24.660Z,94.50
2019-03-13T21:15:51.904Z,94.50
2019-03-13T21:18:19.274Z,94.50
2019-03-13T21:20:46.630Z,94.50
2019-03-13T21:23:13.972Z,94.50
2019-03-13T21:25:41.315Z,94.50
2019-03-13T21:28:08.640Z,94.50
2019-03-13T21:30:35.973Z,94.60
2019-03-13T21:33:03.360Z,94.60
2019-03-13T21:35:30.680Z,94.60
2019-03-13T21:37:57.936Z,94.60
2019-03-13T21:40:25.271Z,94.60
2019-03-13T21:42:54.570Z,94.60
2019-03-13T21:45:23.164Z,94.60
2019-03-13T21:47:50.766Z,94.60
2019-03-13T21:50:19.687Z,94.60
2019-03-13T21:52:47.130Z,94.70
2019-03-13T21:55:14.894Z,94.70
2019-03-13T21:57:42.244Z,94.70
2019-03-13T22:00:17.994Z,94.80
2019-03-13T22:02:45.324Z,94.80
2019-03-13T22:05:24.615Z,94.90
2019-03-13T22:07:41.992Z,94.90
2019-03-13T22:10:09.496Z,94.90
2019-03-13T22:12:36.785Z,94.90
2019-03-13T22:15:04.630Z,94.90
2019-03-13T22:17:31.872Z,94.90
2019-03-13T22:19:59.200Z,94.90
2019-03-13T22:22:26.436Z,94.80
2019-03-13T22:24:53.754Z,94.80
2019-03-13T22:27:20.988Z,94.70
2019-03-13T22:29:48.201Z,94.60
2019-03-13T22:32:15.535Z,94.50
2019-03-13T22:34:42.749Z,94.40
2019-03-13T22:37:09.985Z,94.30
2019-03-13T22:39:37.299Z,94.00
2019-03-13T22:42:04.631Z,93.80
2019-03-13T22:44:32.035Z,93.80
2019-03-13T22:46:59.321Z,93.70
2019-03-13T22:49:26.532Z,93.70
2019-03-13T22:51:54.607Z,93.60
2019-03-13T22:54:21.975Z,93.50
2019-03-13T22:56:49.305Z,93.40
2019-03-13T22:59:16.655Z,93.30
2019-03-13T23:01:44.071Z,93.10
2019-03-13T23:04:11.396Z,93.00
2019-03-13T23:06:38.669Z,92.90
2019-03-13T23:09:11.420Z,92.90
2019-03-13T23:11:39.279Z,92.90
2019-03-13T23:14:06.665Z,92.80
2019-03-13T23:16:34.259Z,92.70
2019-03-13T23:19:01.662Z,92.70
2019-03-13T23:21:28.905Z,92.70
2019-03-13T23:23:56.220Z,92.70
2019-03-13T23:26:23.633Z,92.80
2019-03-13T23:28:50.961Z,92.80
2019-03-13T23:31:18.325Z,92.90
2019-03-13T23:33:45.523Z,92.90
2019-03-13T23:36:12.831Z,93.00
2019-03-13T23:38:40.062Z,93.00
2019-03-13T23:41:07.372Z,93.00
2019-03-13T23:43:34.741Z,93.00
2019-03-13T23:46:02.089Z,93.00
2019-03-13T23:48:29.486Z,93.10
2019-03-13T23:50:56.773Z,93.20
2019-03-13T23:53:24.108Z,93.20
2019-03-13T23:55:51.403Z,93.30
2019-03-13T23:58:18.605Z,93.40
